Alfred, New York
Current Conditions -  °F | °C
As of 3:56 PM on Saturday 20 Dec 2014 (Local Time) from KELZ Reporting Station
Overcast Overcast  
Wind Chill: 25°   Ceiling: 1300
Heat Index: 25°   Visibility: 10mi
Dew Point: 18°   Wind: 0mph
Humidity: 75%   Direction: NA
Pressure: 30.17"   Gusts: NA
Location:  42.25°N, 77.79°W
Report Text: KELZ 202056Z AUTO 00000KT 10SM OVC013 M04/M08 A3017 RMK AO2 SLP247 T10391078 55000
Loading
Personal Weather Stations






























Interactive Weather Map New forecast layout! Learn more

10-Day Weather Forecast

Advertisements
Track Severe Weather on mobile